createdAt,value
2022-08-26T00:00:53.467Z,20.59
2022-08-26T00:03:23.672Z,20.59
2022-08-26T00:05:52.558Z,20.57
2022-08-26T00:08:21.980Z,20.54
2022-08-26T00:10:50.367Z,20.51
2022-08-26T00:13:20.319Z,20.48
2022-08-26T00:15:53.313Z,20.46
2022-08-26T00:18:24.387Z,20.45
2022-08-26T00:20:55.034Z,20.43
2022-08-26T00:23:24.187Z,20.41
2022-08-26T00:25:53.693Z,20.38
2022-08-26T00:28:22.862Z,20.34
2022-08-26T00:30:52.863Z,20.31
2022-08-26T00:33:23.782Z,20.27
2022-08-26T00:35:52.312Z,20.24
2022-08-26T00:38:22.286Z,20.20
2022-08-26T00:40:56.323Z,20.16
2022-08-26T00:43:26.392Z,20.13
2022-08-26T00:46:11.342Z,20.08
2022-08-26T00:48:42.946Z,20.05
2022-08-26T00:51:19.487Z,20.02
2022-08-26T00:54:05.353Z,20.01
2022-08-26T00:56:44.194Z,20.00
2022-08-26T00:59:17.949Z,19.98
2022-08-26T01:01:47.077Z,19.97
2022-08-26T01:04:23.190Z,19.95
2022-08-26T01:06:55.019Z,19.94
2022-08-26T01:09:24.420Z,19.89
2022-08-26T01:11:57.307Z,19.82
2022-08-26T01:14:32.008Z,19.76
2022-08-26T01:17:05.165Z,19.70
2022-08-26T01:19:47.014Z,19.66
2022-08-26T01:22:28.293Z,19.62
2022-08-26T01:25:00.846Z,19.57
2022-08-26T01:27:33.618Z,19.55
2022-08-26T01:30:06.578Z,19.52
2022-08-26T01:32:36.346Z,19.47
2022-08-26T01:35:08.842Z,19.44
2022-08-26T01:37:42.263Z,19.40
2022-08-26T01:40:20.574Z,19.36
2022-08-26T01:42:49.483Z,19.34
2022-08-26T01:45:26.825Z,19.33
2022-08-26T01:47:59.543Z,19.32
2022-08-26T01:50:33.523Z,19.30
2022-08-26T01:53:09.523Z,19.27
2022-08-26T01:55:44.607Z,19.24
2022-08-26T01:58:26.436Z,19.23
2022-08-26T02:00:55.226Z,19.21
2022-08-26T02:03:29.589Z,19.18
2022-08-26T02:06:04.595Z,19.17
2022-08-26T02:08:54.159Z,19.17
2022-08-26T02:11:23.024Z,19.16
2022-08-26T02:13:59.787Z,19.15
2022-08-26T02:16:32.725Z,19.13
2022-08-26T02:19:03.222Z,19.12
2022-08-26T02:21:33.261Z,19.11
2022-08-26T02:24:19.634Z,19.09
2022-08-26T02:26:49.983Z,19.07
2022-08-26T02:29:24.378Z,19.06
2022-08-26T02:32:02.409Z,19.04
2022-08-26T02:34:33.354Z,19.03
2022-08-26T02:37:12.612Z,18.99
2022-08-26T02:39:42.997Z,18.96
2022-08-26T02:42:11.644Z,18.95
2022-08-26T02:44:40.262Z,18.93
2022-08-26T02:47:08.778Z,18.92
2022-08-26T02:49:38.101Z,18.92
2022-08-26T02:52:06.839Z,18.90
2022-08-26T02:54:36.017Z,18.89
2022-08-26T02:57:06.188Z,18.88
2022-08-26T02:59:36.089Z,18.87
2022-08-26T03:02:05.484Z,18.86
2022-08-26T03:04:34.086Z,18.84
2022-08-26T03:07:02.691Z,18.81
2022-08-26T03:09:32.455Z,18.78
2022-08-26T03:12:02.183Z,18.75
2022-08-26T03:14:30.587Z,18.73
2022-08-26T03:17:01.463Z,18.70
2022-08-26T03:19:31.143Z,18.68
2022-08-26T03:22:00.156Z,18.65
2022-08-26T03:24:28.938Z,18.63
2022-08-26T03:26:57.421Z,18.61
2022-08-26T03:29:44.498Z,18.59
2022-08-26T03:32:17.966Z,18.57
2022-08-26T03:34:47.101Z,18.55
2022-08-26T03:37:15.504Z,18.51
2022-08-26T03:39:43.927Z,18.49
2022-08-26T03:42:12.325Z,18.47
2022-08-26T03:44:42.237Z,18.44
2022-08-26T03:47:11.112Z,18.41
2022-08-26T03:49:39.932Z,18.37
2022-08-26T03:52:08.615Z,18.35
2022-08-26T03:54:37.583Z,18.34
2022-08-26T03:57:05.942Z,18.33
2022-08-26T03:59:34.264Z,18.32
2022-08-26T04:02:03.571Z,18.30
2022-08-26T04:04:43.636Z,18.29
2022-08-26T04:07:12.603Z,18.28
2022-08-26T04:09:41.008Z,18.28
2022-08-26T04:12:10.820Z,18.28
2022-08-26T04:14:39.995Z,18.25
2022-08-26T04:17:08.322Z,18.22
2022-08-26T04:19:36.596Z,18.22
2022-08-26T04:22:05.150Z,18.22
2022-08-26T04:24:34.710Z,18.22
2022-08-26T04:27:03.575Z,18.22
2022-08-26T04:29:32.554Z,18.23
2022-08-26T04:32:02.892Z,18.25
2022-08-26T04:34:32.444Z,18.25
2022-08-26T04:37:02.146Z,18.25
2022-08-26T04:39:31.364Z,18.25
2022-08-26T04:42:00.629Z,18.27
2022-08-26T04:44:30.583Z,18.30
2022-08-26T04:46:58.940Z,18.33
2022-08-26T04:49:27.761Z,18.36
2022-08-26T04:51:56.197Z,18.39
2022-08-26T04:54:25.138Z,18.42
2022-08-26T04:56:53.637Z,18.45
2022-08-26T04:59:22.182Z,18.47
2022-08-26T05:01:56.381Z,18.51
2022-08-26T05:04:25.279Z,18.54
2022-08-26T05:06:59.216Z,18.58
2022-08-26T05:09:30.737Z,18.63
2022-08-26T05:11:59.114Z,18.67
2022-08-26T05:14:28.054Z,18.70
2022-08-26T05:16:56.477Z,18.74
2022-08-26T05:19:25.357Z,18.79
2022-08-26T05:21:56.358Z,18.85
2022-08-26T05:24:24.897Z,18.91
2022-08-26T05:26:53.459Z,18.97
2022-08-26T05:29:21.919Z,19.03
2022-08-26T05:31:52.620Z,19.09
2022-08-26T05:34:21.254Z,19.13
2022-08-26T05:36:49.741Z,19.18
2022-08-26T05:39:18.913Z,19.25
2022-08-26T05:41:47.730Z,19.30
2022-08-26T05:44:18.903Z,19.39
2022-08-26T05:46:47.279Z,19.48
2022-08-26T05:49:16.339Z,19.55
2022-08-26T05:51:47.737Z,19.62
2022-08-26T05:54:21.376Z,19.70
2022-08-26T05:56:52.170Z,19.78
2022-08-26T05:59:24.283Z,19.86
2022-08-26T06:01:55.148Z,19.93
2022-08-26T06:04:29.047Z,20.01
2022-08-26T06:06:59.153Z,20.08
2022-08-26T06:09:27.789Z,20.15
2022-08-26T06:11:58.709Z,20.25
2022-08-26T06:14:27.151Z,20.34
2022-08-26T06:16:55.591Z,20.42
2022-08-26T06:19:23.972Z,20.52
2022-08-26T06:21:54.743Z,20.60
2022-08-26T06:24:42.311Z,20.69
2022-08-26T06:27:13.743Z,20.79
2022-08-26T06:29:42.618Z,20.89
2022-08-26T06:32:11.021Z,20.97
2022-08-26T06:34:39.501Z,21.06
2022-08-26T06:37:23.842Z,21.15
2022-08-26T06:39:52.211Z,21.25
2022-08-26T06:42:24.010Z,21.33
2022-08-26T06:44:52.376Z,21.43
2022-08-26T06:47:20.735Z,21.52
2022-08-26T06:49:49.175Z,21.61
2022-08-26T06:52:24.252Z,21.69
2022-08-26T06:54:53.052Z,21.76
2022-08-26T06:57:21.411Z,21.82
2022-08-26T06:59:51.174Z,21.88
2022-08-26T07:02:20.787Z,21.96
2022-08-26T07:04:51.194Z,22.05
2022-08-26T07:07:22.019Z,22.13
2022-08-26T07:09:52.390Z,22.21
2022-08-26T07:12:21.451Z,22.29
2022-08-26T07:14:50.161Z,22.36
2022-08-26T07:17:19.452Z,22.45
2022-08-26T07:19:49.078Z,22.55
2022-08-26T07:22:18.847Z,22.65
2022-08-26T07:24:47.159Z,22.72
2022-08-26T07:27:17.589Z,22.82
2022-08-26T07:29:46.423Z,22.91
2022-08-26T07:32:17.097Z,22.99
2022-08-26T07:34:46.899Z,23.07
2022-08-26T07:37:15.654Z,23.15
2022-08-26T07:39:47.479Z,23.25
2022-08-26T07:42:20.453Z,23.36
2022-08-26T07:44:49.183Z,23.50
2022-08-26T07:47:24.932Z,23.60
2022-08-26T07:49:57.665Z,23.70
2022-08-26T07:52:29.626Z,23.83
2022-08-26T07:55:01.223Z,23.96
2022-08-26T07:57:30.644Z,24.09
2022-08-26T07:59:59.755Z,24.23
2022-08-26T08:02:29.935Z,24.36
2022-08-26T08:04:58.529Z,24.49
2022-08-26T08:07:44.317Z,24.62
2022-08-26T08:10:21.448Z,24.76
2022-08-26T08:12:56.340Z,24.90
2022-08-26T08:15:30.005Z,25.02
2022-08-26T08:18:00.615Z,25.15
2022-08-26T08:20:30.540Z,25.27
2022-08-26T08:23:01.453Z,25.40
2022-08-26T08:25:34.592Z,25.53
2022-08-26T08:28:03.504Z,25.66
2022-08-26T08:30:32.084Z,25.77
2022-08-26T08:33:03.583Z,25.90
2022-08-26T08:35:31.879Z,26.02
2022-08-26T08:38:00.949Z,26.13
2022-08-26T08:40:32.765Z,26.25
2022-08-26T08:43:09.780Z,26.37
2022-08-26T08:45:47.793Z,26.51
2022-08-26T08:48:43.756Z,26.70
2022-08-26T08:51:35.636Z,26.91
2022-08-26T08:54:04.944Z,27.19
2022-08-26T08:56:46.898Z,27.38
2022-08-26T08:59:21.779Z,27.58
2022-08-26T09:02:11.144Z,27.75
2022-08-26T09:05:17.530Z,27.94
2022-08-26T09:08:16.150Z,28.14
2022-08-26T09:11:01.089Z,28.34
2022-08-26T09:13:31.715Z,28.52
2022-08-26T09:16:10.151Z,28.69
2022-08-26T09:19:04.617Z,28.88
2022-08-26T09:21:33.600Z,29.09
2022-08-26T09:24:04.067Z,29.27
2022-08-26T09:29:41.781Z,29.65
2022-08-26T09:32:26.556Z,29.86
2022-08-26T09:35:03.374Z,30.08
2022-08-26T09:40:28.081Z,30.46
2022-08-26T09:43:22.490Z,30.70
2022-08-26T09:45:59.543Z,30.93
2022-08-26T09:48:36.115Z,31.12
2022-08-26T09:51:27.623Z,31.33
2022-08-26T09:54:00.188Z,31.60
2022-08-26T09:56:36.698Z,31.85
2022-08-26T09:59:10.941Z,32.04
2022-08-26T10:01:43.545Z,32.07
2022-08-26T10:04:30.892Z,32.20
2022-08-26T10:07:05.329Z,32.22
2022-08-26T10:09:45.606Z,32.29
2022-08-26T10:12:21.236Z,32.25
2022-08-26T10:14:59.105Z,32.40
2022-08-26T10:17:34.174Z,32.52
2022-08-26T10:20:29.679Z,32.67
2022-08-26T10:23:09.676Z,32.86
2022-08-26T10:26:00.207Z,32.98
2022-08-26T10:28:56.250Z,33.03
2022-08-26T10:31:41.307Z,33.27
2022-08-26T10:34:12.508Z,33.57
2022-08-26T10:37:14.481Z,33.88
2022-08-26T10:40:05.375Z,34.24
2022-08-26T10:42:58.773Z,34.61
2022-08-26T10:45:42.894Z,35.02
2022-08-26T10:48:21.300Z,35.34
2022-08-26T10:50:50.435Z,35.60
2022-08-26T10:53:32.618Z,35.87
2022-08-26T10:56:26.699Z,36.18
2022-08-26T10:59:21.746Z,35.96
2022-08-26T11:02:07.292Z,35.66
2022-08-26T11:05:23.456Z,35.48
2022-08-26T11:08:20.772Z,35.22
2022-08-26T11:10:52.131Z,35.09
2022-08-26T11:14:01.295Z,35.00
2022-08-26T11:16:54.137Z,34.94
2022-08-26T11:19:59.590Z,34.90
2022-08-26T11:22:47.527Z,35.31
2022-08-26T11:25:19.476Z,35.79
2022-08-26T11:27:48.003Z,36.26
2022-08-26T11:30:18.511Z,36.75
2022-08-26T11:32:57.764Z,37.16
2022-08-26T11:35:37.329Z,37.54
2022-08-26T11:38:29.509Z,37.89
2022-08-26T11:41:09.502Z,38.31
2022-08-26T11:43:40.761Z,38.71
2022-08-26T11:46:13.093Z,39.09
2022-08-26T11:48:43.645Z,39.26
2022-08-26T11:51:22.999Z,38.72
2022-08-26T11:53:51.834Z,38.21
2022-08-26T11:56:34.682Z,37.87
2022-08-26T11:59:11.110Z,37.51
2022-08-26T12:01:43.922Z,37.25
2022-08-26T12:04:27.004Z,37.12
2022-08-26T12:06:57.119Z,37.04
2022-08-26T12:09:30.612Z,36.97
2022-08-26T12:12:14.874Z,36.95
2022-08-26T12:14:44.838Z,37.41
2022-08-26T12:17:27.952Z,38.00
2022-08-26T12:19:56.291Z,38.57
2022-08-26T12:22:36.044Z,38.95
2022-08-26T12:25:08.860Z,39.34
2022-08-26T12:27:42.360Z,39.75
2022-08-26T12:30:17.946Z,40.19
2022-08-26T12:33:03.279Z,40.67
2022-08-26T12:35:49.401Z,41.20
2022-08-26T12:38:20.459Z,41.64
2022-08-26T12:40:50.693Z,42.08
2022-08-26T12:43:46.099Z,41.94
2022-08-26T12:46:27.309Z,40.92
2022-08-26T12:49:01.140Z,40.17
2022-08-26T12:51:34.976Z,39.64
2022-08-26T12:54:06.867Z,39.28
2022-08-26T12:56:39.933Z,39.07
2022-08-26T12:59:19.960Z,38.81
2022-08-26T13:01:49.553Z,38.55
2022-08-26T13:04:46.333Z,38.35
2022-08-26T13:07:25.657Z,38.62
2022-08-26T13:09:58.022Z,39.37
2022-08-26T13:12:37.536Z,40.17
2022-08-26T13:15:07.318Z,40.96
2022-08-26T13:17:36.137Z,41.68
2022-08-26T13:20:05.061Z,42.29
2022-08-26T13:22:34.422Z,42.85
2022-08-26T13:25:02.980Z,43.36
2022-08-26T13:27:31.507Z,43.81
2022-08-26T13:30:00.445Z,44.28
2022-08-26T13:32:29.004Z,44.71
2022-08-26T13:34:57.722Z,44.89
2022-08-26T13:37:35.014Z,43.87
2022-08-26T13:40:07.559Z,42.78
2022-08-26T13:42:36.111Z,42.02
2022-08-26T13:45:06.393Z,41.36
2022-08-26T13:47:35.129Z,40.90
2022-08-26T13:50:05.843Z,40.58
2022-08-26T13:52:34.399Z,40.35
2022-08-26T13:55:03.898Z,40.17
2022-08-26T13:57:32.368Z,39.97
2022-08-26T14:00:00.801Z,40.02
2022-08-26T14:02:30.772Z,40.74
2022-08-26T14:04:59.137Z,41.66
2022-08-26T14:07:27.569Z,42.53
2022-08-26T14:09:56.675Z,43.40
2022-08-26T14:12:25.285Z,44.11
2022-08-26T14:14:53.763Z,44.71
2022-08-26T14:17:24.774Z,45.31
2022-08-26T14:19:53.952Z,45.96
2022-08-26T14:22:23.182Z,46.49
2022-08-26T14:24:51.748Z,46.96
2022-08-26T14:27:20.183Z,47.35
2022-08-26T14:29:48.620Z,46.47
2022-08-26T14:32:28.825Z,45.36
2022-08-26T14:34:57.343Z,44.32
2022-08-26T14:37:26.058Z,43.50
2022-08-26T14:39:56.544Z,42.87
2022-08-26T14:42:31.570Z,42.38
2022-08-26T14:45:04.139Z,42.01
2022-08-26T14:47:32.645Z,42.25
2022-08-26T14:50:01.260Z,42.23
2022-08-26T14:52:49.689Z,42.06
2022-08-26T14:55:18.562Z,41.90
2022-08-26T14:57:47.006Z,41.74
2022-08-26T15:00:15.971Z,41.56
2022-08-26T15:02:45.259Z,41.45
2022-08-26T15:05:13.984Z,41.38
2022-08-26T15:07:45.133Z,41.41
2022-08-26T15:10:16.927Z,41.45
2022-08-26T15:12:46.010Z,41.40
2022-08-26T15:15:17.802Z,41.31
2022-08-26T15:17:46.257Z,41.26
2022-08-26T15:20:18.008Z,41.22
2022-08-26T15:22:46.422Z,41.15
2022-08-26T15:25:15.521Z,41.15
2022-08-26T15:27:45.439Z,41.17
2022-08-26T15:30:14.214Z,41.14
2022-08-26T15:32:42.680Z,41.13
2022-08-26T15:35:11.135Z,41.12
2022-08-26T15:37:39.646Z,41.09
2022-08-26T15:40:11.165Z,41.08
2022-08-26T15:42:39.827Z,40.99
2022-08-26T15:45:08.614Z,40.87
2022-08-26T15:47:55.290Z,40.73
2022-08-26T15:50:25.587Z,40.59
2022-08-26T15:52:54.062Z,40.47
2022-08-26T15:55:23.595Z,40.33
2022-08-26T15:57:52.060Z,40.24
2022-08-26T16:00:21.040Z,40.17
2022-08-26T16:02:50.602Z,40.10
2022-08-26T16:05:19.108Z,39.99
2022-08-26T16:07:48.777Z,39.86
2022-08-26T16:10:18.683Z,39.75
2022-08-26T16:12:47.157Z,39.62
2022-08-26T16:15:15.752Z,39.47
2022-08-26T16:17:44.308Z,39.31
2022-08-26T16:20:13.439Z,39.17
2022-08-26T16:22:41.876Z,39.04
2022-08-26T16:25:11.466Z,38.86
2022-08-26T16:27:39.900Z,38.64
2022-08-26T16:30:09.140Z,38.42
2022-08-26T16:32:37.678Z,38.19
2022-08-26T16:35:06.797Z,37.97
2022-08-26T16:37:37.681Z,37.76
2022-08-26T16:40:10.203Z,37.47
2022-08-26T16:42:39.347Z,37.18
2022-08-26T16:45:08.669Z,37.00
2022-08-26T16:47:37.448Z,36.80
2022-08-26T16:50:09.501Z,36.62
2022-08-26T16:52:38.161Z,36.55
2022-08-26T16:55:10.957Z,36.47
2022-08-26T16:57:43.963Z,36.36
2022-08-26T17:00:21.232Z,36.16
2022-08-26T17:02:49.793Z,35.94
2022-08-26T17:05:18.363Z,35.64
2022-08-26T17:07:46.950Z,35.26
2022-08-26T17:10:15.538Z,34.61
2022-08-26T17:12:50.300Z,33.83
2022-08-26T17:15:19.204Z,33.13
2022-08-26T17:17:49.439Z,32.55
2022-08-26T17:20:44.368Z,32.06
2022-08-26T17:23:22.331Z,31.57
2022-08-26T17:25:52.515Z,31.15
2022-08-26T17:28:20.899Z,30.77
2022-08-26T17:30:49.286Z,30.34
2022-08-26T17:33:21.946Z,29.90
2022-08-26T17:35:53.850Z,29.49
2022-08-26T17:38:23.205Z,29.14
2022-08-26T17:40:52.068Z,28.82
2022-08-26T17:43:20.722Z,28.54
2022-08-26T17:45:49.741Z,28.27
2022-08-26T17:48:18.143Z,28.00
2022-08-26T17:50:49.723Z,27.85
2022-08-26T17:53:19.364Z,27.73
2022-08-26T17:55:48.708Z,27.61
2022-08-26T17:58:23.232Z,27.49
2022-08-26T18:00:54.673Z,27.36
2022-08-26T18:03:23.598Z,27.24
2022-08-26T18:05:53.770Z,27.11
2022-08-26T18:08:22.124Z,26.98
2022-08-26T18:10:50.962Z,26.87
2022-08-26T18:13:19.511Z,26.76
2022-08-26T18:15:47.978Z,26.65
2022-08-26T18:18:16.832Z,26.53
2022-08-26T18:20:46.070Z,26.42
2022-08-26T18:23:22.210Z,26.30
2022-08-26T18:25:50.694Z,26.18
2022-08-26T18:28:19.091Z,26.05
2022-08-26T18:30:47.629Z,25.93
2022-08-26T18:33:16.097Z,25.81
2022-08-26T18:35:45.428Z,25.68
2022-08-26T18:38:15.330Z,25.54
2022-08-26T18:40:45.511Z,25.33
2022-08-26T18:43:13.831Z,25.22
2022-08-26T18:45:42.231Z,25.11
2022-08-26T18:48:11.136Z,25.00
2022-08-26T18:50:43.815Z,24.89
2022-08-26T18:53:14.414Z,24.73
2022-08-26T18:55:44.009Z,24.64
2022-08-26T18:58:12.343Z,24.56
2022-08-26T19:00:40.670Z,24.48
2022-08-26T19:03:15.585Z,24.40
2022-08-26T19:05:47.433Z,24.33
2022-08-26T19:08:15.900Z,24.27
2022-08-26T19:10:44.344Z,24.20
2022-08-26T19:13:14.224Z,24.11
2022-08-26T19:15:46.902Z,24.02
2022-08-26T19:18:15.937Z,23.95
2022-08-26T19:20:47.911Z,23.87
2022-08-26T19:23:31.511Z,23.81
2022-08-26T19:26:05.552Z,23.73
2022-08-26T19:28:34.824Z,23.67
2022-08-26T19:31:03.880Z,23.61
2022-08-26T19:33:32.832Z,23.55
2022-08-26T19:36:03.747Z,23.48
2022-08-26T19:38:35.295Z,23.41
2022-08-26T19:41:03.693Z,23.34
2022-08-26T19:43:32.361Z,23.29
2022-08-26T19:46:00.834Z,23.24
2022-08-26T19:48:29.772Z,23.21
2022-08-26T19:50:58.164Z,23.17
2022-08-26T19:53:26.587Z,23.12
2022-08-26T19:55:54.956Z,23.07
2022-08-26T19:58:23.366Z,23.03
2022-08-26T20:00:51.767Z,22.99
2022-08-26T20:03:20.267Z,22.95
2022-08-26T20:05:49.268Z,22.92
2022-08-26T20:08:21.796Z,22.87
2022-08-26T20:10:53.044Z,22.81
2022-08-26T20:13:24.442Z,22.76
2022-08-26T20:15:54.846Z,22.71
2022-08-26T20:18:43.905Z,22.66
2022-08-26T20:21:29.607Z,22.61
2022-08-26T20:24:04.926Z,22.54
2022-08-26T20:26:37.499Z,22.46
2022-08-26T20:29:08.328Z,22.38
2022-08-26T20:31:38.197Z,22.32
2022-08-26T20:34:07.605Z,22.26
2022-08-26T20:36:39.418Z,22.18
2022-08-26T20:39:08.592Z,22.13
2022-08-26T20:41:38.204Z,22.09
2022-08-26T20:44:07.457Z,22.05
2022-08-26T20:46:37.296Z,22.02
2022-08-26T20:49:07.484Z,21.98
2022-08-26T20:51:37.507Z,21.92
2022-08-26T20:54:07.150Z,21.86
2022-08-26T20:56:36.407Z,21.79
2022-08-26T20:59:07.076Z,21.72
2022-08-26T21:01:42.107Z,21.72
2022-08-26T21:04:18.175Z,21.78
2022-08-26T21:06:52.308Z,21.83
2022-08-26T21:09:25.656Z,21.86
2022-08-26T21:11:55.338Z,21.79
2022-08-26T21:14:25.998Z,21.74
2022-08-26T21:16:54.883Z,21.71
2022-08-26T21:19:23.774Z,21.66
2022-08-26T21:21:52.444Z,21.62
2022-08-26T21:24:21.456Z,21.58
2022-08-26T21:26:50.056Z,21.54
2022-08-26T21:29:18.560Z,21.48
2022-08-26T21:31:47.194Z,21.42
2022-08-26T21:34:20.079Z,21.36
2022-08-26T21:36:49.798Z,21.30
2022-08-26T21:39:18.274Z,21.22
2022-08-26T21:41:47.577Z,21.14
2022-08-26T21:44:18.200Z,21.08
2022-08-26T21:46:47.231Z,21.05
2022-08-26T21:49:18.421Z,21.04
2022-08-26T21:51:48.879Z,20.98
2022-08-26T21:54:18.375Z,20.92
2022-08-26T21:56:47.836Z,20.86
2022-08-26T21:59:23.411Z,20.80
2022-08-26T22:01:51.956Z,20.73
2022-08-26T22:04:21.032Z,20.68
2022-08-26T22:06:53.538Z,20.64
2022-08-26T22:09:28.345Z,20.61
2022-08-26T22:12:01.033Z,20.58
2022-08-26T22:14:30.986Z,20.54
2022-08-26T22:17:00.646Z,20.49
2022-08-26T22:19:31.899Z,20.43
2022-08-26T22:22:03.728Z,20.38
2022-08-26T22:24:32.144Z,20.32
2022-08-26T22:27:00.594Z,20.24
2022-08-26T22:29:29.205Z,20.17
2022-08-26T22:31:57.846Z,20.11
2022-08-26T22:34:26.965Z,20.05
2022-08-26T22:36:55.637Z,19.99
2022-08-26T22:39:26.740Z,19.94
2022-08-26T22:41:56.924Z,19.87
2022-08-26T22:44:25.689Z,19.80
2022-08-26T22:46:54.723Z,19.72
2022-08-26T22:49:24.475Z,19.66
2022-08-26T22:51:52.936Z,19.62
2022-08-26T22:54:21.581Z,19.56
2022-08-26T22:56:50.076Z,19.53
2022-08-26T22:59:18.690Z,19.51
2022-08-26T23:01:47.544Z,19.49
2022-08-26T23:04:16.255Z,19.45
2022-08-26T23:06:47.848Z,19.43
2022-08-26T23:09:18.684Z,19.41
2022-08-26T23:11:48.714Z,19.39
2022-08-26T23:14:18.953Z,19.35
2022-08-26T23:16:48.123Z,19.33
2022-08-26T23:19:21.142Z,19.30
2022-08-26T23:21:49.884Z,19.28
2022-08-26T23:24:19.187Z,19.24
2022-08-26T23:26:47.610Z,19.23
2022-08-26T23:29:16.833Z,19.21
2022-08-26T23:31:45.867Z,19.20
2022-08-26T23:34:33.199Z,19.16
2022-08-26T23:37:02.887Z,19.12
2022-08-26T23:39:36.962Z,19.07
2022-08-26T23:42:06.912Z,19.01
2022-08-26T23:44:35.364Z,18.97
2022-08-26T23:47:05.099Z,18.94
2022-08-26T23:49:35.268Z,18.92
2022-08-26T23:52:24.813Z,18.91
2022-08-26T23:54:53.797Z,18.89
2022-08-26T23:57:25.337Z,18.86
2022-08-26T23:59:53.854Z,18.83
